Puvirnituq Airport
CYPX : now visible

Airfield :











YOU CAN JOIN US ON...

 
LOGIN :

Register | Disclaimer

   EN    FR    IT 

 









Legend :    VFR   Marginal VFR   IFR   Intensive IFR   Very Intensive IFR
Visi :
Ceiling :
>= 8 km
>= 3000ft
5 to 8 km
1000 to 3000 ft
1500m to 5 km
500 to 1000 ft
800 to 1500m
200 to 500 ft
< 800m
< 200 ft
Symbols :   Thunderstorms  Fog  Heavy snow  Heavy precipitations  Wind > 20 kt






- Airport Elevation : 74 ft
- IATA code : YPX


CYPX - Puvirnituq

CURRENT METAR :
  • 211700Z AUTO 36011KT 9SM FEW220 03/M02 A3006 RMK SLP183

EXPIRED METARs :
  • 211600Z AUTO 35010KT 9SM OVC200 02/M02 A3006 RMK SLP183
  • 211500Z AUTO 01008KT 9SM SCT210 02/M03 A3006 RMK SLP185
  • 211400Z AUTO 35008KT 9SM CLR 02/M03 A3007 RMK SLP186
  • 211300Z AUTO 04004KT 9SM CLR 01/M03 A3007 RMK SLP188

TAF TAF CYPX
Valid from the 21 at 12:00 until the 22 at 00:00 UTC


211140Z 2112/2124 03008KT P6SM SKC
FM211500 01010KT P6SM SCT006
TEMPO 2115/2124 BKN006 RMK FCST BASED ON AUTO OBS. NXT FCST BY 211800Z
CZUL FIR / North America



MET'MAP, your aeronautical weather chart ! - Copyright ORBIFLY December 2007 - Disclaimer

ORBIFLY MET'MAP TEAM :

Programming & Development : Alexandra Zaïnal
Original concept : Baudouin d'Aumeries
Technical & hardware support : Manuel Goepfert
Assistance : Marc-Olivier Méhu




SOURCES & CREDITS :

   NOAA       Earth
Advisory